createdAt,value
2022-09-28T00:01:17.046Z,96013.05
2022-09-28T00:03:48.483Z,96015.74
2022-09-28T00:06:18.059Z,96017.47
2022-09-28T00:08:45.761Z,96014.16
2022-09-28T00:11:14.842Z,96008.73
2022-09-28T00:13:43.350Z,95999.84
2022-09-28T00:16:16.847Z,95996.95
2022-09-28T00:18:45.093Z,95994.25
2022-09-28T00:21:17.742Z,96003.27
2022-09-28T00:24:04.037Z,96003.84
2022-09-28T00:26:33.143Z,96011.73
2022-09-28T00:29:01.543Z,96016.33
2022-09-28T00:31:33.894Z,96016.70
2022-09-28T00:34:02.105Z,96012.66
2022-09-28T00:36:31.483Z,96018.05
2022-09-28T00:39:00.423Z,96015.16
2022-09-28T00:41:29.231Z,96010.13
2022-09-28T00:44:35.704Z,96007.23
2022-09-28T00:47:27.194Z,96010.34
2022-09-28T00:50:01.056Z,96010.55
2022-09-28T00:52:37.822Z,96010.39
2022-09-28T00:55:08.437Z,96015.39
2022-09-28T00:57:37.604Z,96011.97
2022-09-28T01:00:06.230Z,96014.28
2022-09-28T01:02:34.342Z,96014.89
2022-09-28T01:05:03.694Z,96015.70
2022-09-28T01:07:32.187Z,96013.63
2022-09-28T01:09:59.830Z,96019.62
2022-09-28T01:12:27.234Z,96023.52
2022-09-28T01:14:55.537Z,96018.89
2022-09-28T01:17:32.262Z,96014.85
2022-09-28T01:20:13.817Z,96015.05
2022-09-28T01:22:55.055Z,96022.75
2022-09-28T01:25:38.106Z,96028.14
2022-09-28T01:28:16.428Z,96020.25
2022-09-28T01:30:46.959Z,96017.97
2022-09-28T01:33:21.247Z,96014.31
2022-09-28T01:36:12.565Z,96011.81
2022-09-28T01:38:43.092Z,96015.85
2022-09-28T01:41:11.850Z,96014.31
2022-09-28T01:43:41.926Z,96003.33
2022-09-28T01:46:14.675Z,96006.38
2022-09-28T01:48:48.567Z,95999.83
2022-09-28T01:51:21.419Z,95999.56
2022-09-28T01:53:51.449Z,96004.92
2022-09-28T01:56:24.085Z,96009.34
2022-09-28T01:58:55.061Z,96002.77
2022-09-28T02:01:25.932Z,96002.57
2022-09-28T02:04:15.520Z,95990.79
2022-09-28T02:06:56.701Z,96005.07
2022-09-28T02:09:31.691Z,96009.08
2022-09-28T02:12:00.519Z,96011.35
2022-09-28T02:14:29.168Z,96012.70
2022-09-28T02:16:58.211Z,96012.89
2022-09-28T02:19:28.344Z,96014.78
2022-09-28T02:22:25.088Z,96017.48
2022-09-28T02:25:29.930Z,96027.48
2022-09-28T02:28:05.386Z,96028.80
2022-09-28T02:30:35.983Z,96028.59
2022-09-28T02:33:07.000Z,96032.64
2022-09-28T02:35:34.897Z,96037.81
2022-09-28T02:38:02.848Z,96042.66
2022-09-28T02:40:32.960Z,96049.16
2022-09-28T02:43:09.969Z,96052.24
2022-09-28T02:46:01.585Z,96053.20
2022-09-28T02:49:19.863Z,96055.13
2022-09-28T02:51:44.113Z,96058.20
2022-09-28T02:54:21.966Z,96066.45
2022-09-28T02:57:08.349Z,96074.08
2022-09-28T02:59:52.092Z,96079.92
2022-09-28T03:02:39.512Z,96080.12
2022-09-28T03:05:13.330Z,96087.12
2022-09-28T03:07:50.218Z,96085.41
2022-09-28T03:10:29.873Z,96083.67
2022-09-28T03:12:57.731Z,96085.25
2022-09-28T03:15:30.496Z,96079.67
2022-09-28T03:17:58.748Z,96076.98
2022-09-28T03:20:27.200Z,96079.52
2022-09-28T03:23:19.786Z,96079.72
2022-09-28T03:25:24.758Z,96084.56
2022-09-28T03:27:52.114Z,96079.17
2022-09-28T03:30:20.035Z,96078.38
2022-09-28T03:32:47.438Z,96073.16
2022-09-28T03:35:15.247Z,96074.47
2022-09-28T03:37:42.534Z,96081.55
2022-09-28T03:40:10.239Z,96073.84
2022-09-28T03:42:37.713Z,96071.34
2022-09-28T03:45:05.821Z,96066.16
2022-09-28T03:47:33.647Z,96063.11
2022-09-28T03:50:00.899Z,96072.39
2022-09-28T03:52:28.660Z,96061.37
2022-09-28T03:54:55.720Z,96053.87
2022-09-28T03:57:23.148Z,96051.55
2022-09-28T03:59:50.665Z,96051.52
2022-09-28T04:02:18.353Z,96057.83
2022-09-28T04:04:46.756Z,96067.41
2022-09-28T04:07:15.049Z,96061.48
2022-09-28T04:09:42.991Z,96054.16
2022-09-28T04:12:10.394Z,96063.80
2022-09-28T04:14:37.960Z,96067.64
2022-09-28T04:17:06.660Z,96071.69
2022-09-28T04:19:34.033Z,96076.70
2022-09-28T04:22:09.063Z,96081.16
2022-09-28T04:24:38.755Z,96080.20
2022-09-28T04:27:24.739Z,96075.23
2022-09-28T04:29:52.307Z,96083.17
2022-09-28T04:32:19.709Z,96084.72
2022-09-28T04:34:47.467Z,96084.34
2022-09-28T04:37:14.714Z,96092.27
2022-09-28T04:39:46.178Z,96097.28
2022-09-28T04:42:11.657Z,96095.20
2022-09-28T04:44:39.518Z,96091.01
2022-09-28T04:47:08.636Z,96093.75
2022-09-28T04:49:40.624Z,96092.59
2022-09-28T04:52:12.547Z,96098.03
2022-09-28T04:54:39.549Z,96103.69
2022-09-28T04:57:07.244Z,96102.95
2022-09-28T04:59:36.565Z,96112.79
2022-09-28T05:02:04.395Z,96113.78
2022-09-28T05:04:36.632Z,96115.33
2022-09-28T05:07:05.995Z,96111.28
2022-09-28T05:09:37.667Z,96108.02
2022-09-28T05:12:03.639Z,96108.02
2022-09-28T05:14:31.786Z,96115.38
2022-09-28T05:16:59.237Z,96107.73
2022-09-28T05:19:29.862Z,96099.69
2022-09-28T05:22:00.818Z,96099.14
2022-09-28T05:24:30.584Z,96108.86
2022-09-28T05:26:58.111Z,96110.67
2022-09-28T05:29:31.947Z,96105.16
2022-09-28T05:32:16.581Z,96115.31
2022-09-28T05:34:48.897Z,96113.20
2022-09-28T05:37:18.511Z,96114.89
2022-09-28T05:39:47.193Z,96114.71
2022-09-28T05:42:14.604Z,96117.67
2022-09-28T05:44:45.710Z,96126.36
2022-09-28T05:47:13.461Z,96127.14
2022-09-28T05:49:41.995Z,96123.66
2022-09-28T05:52:09.619Z,96124.22
2022-09-28T05:54:38.720Z,96130.97
2022-09-28T05:57:07.035Z,96141.55
2022-09-28T05:59:35.677Z,96141.11
2022-09-28T06:02:04.596Z,96149.38
2022-09-28T06:04:32.090Z,96156.10
2022-09-28T06:06:59.666Z,96160.30
2022-09-28T06:09:28.061Z,96159.10
2022-09-28T06:12:15.539Z,96169.13
2022-09-28T06:14:48.674Z,96164.27
2022-09-28T06:17:16.165Z,96163.04
2022-09-28T06:19:45.454Z,96163.58
2022-09-28T06:22:17.576Z,96169.73
2022-09-28T06:24:46.991Z,96173.19
2022-09-28T06:27:14.382Z,96164.47
2022-09-28T06:29:42.643Z,96168.75
2022-09-28T06:32:11.745Z,96159.09
2022-09-28T06:34:42.715Z,96164.93
2022-09-28T06:37:10.578Z,96159.39
2022-09-28T06:39:37.878Z,96162.98
2022-09-28T06:42:05.868Z,96161.05
2022-09-28T06:44:40.982Z,96167.41
2022-09-28T06:47:15.896Z,96170.14
2022-09-28T06:50:06.703Z,96166.42
2022-09-28T06:52:53.975Z,96170.77
2022-09-28T06:55:26.820Z,96168.90
2022-09-28T06:58:00.889Z,96177.74
2022-09-28T07:00:32.452Z,96173.13
2022-09-28T07:03:03.073Z,96179.83
2022-09-28T07:05:44.072Z,96172.48
2022-09-28T07:08:19.888Z,96176.92
2022-09-28T07:11:07.854Z,96179.23
2022-09-28T07:13:50.315Z,96179.07
2022-09-28T07:16:09.541Z,96187.14
2022-09-28T07:18:39.411Z,96201.91
2022-09-28T07:21:07.672Z,96204.59
2022-09-28T07:23:48.084Z,96212.25
2022-09-28T07:26:13.885Z,96227.41
2022-09-28T07:28:45.853Z,96231.69
2022-09-28T07:31:33.297Z,96232.81
2022-09-28T07:34:14.213Z,96227.71
2022-09-28T07:36:57.358Z,96226.23
2022-09-28T07:39:25.430Z,96227.00
2022-09-28T07:41:56.754Z,96234.38
2022-09-28T07:44:22.839Z,96237.50
2022-09-28T07:46:52.281Z,96234.78
2022-09-28T07:49:31.763Z,96237.13
2022-09-28T07:52:03.972Z,96229.94
2022-09-28T07:54:39.503Z,96235.35
2022-09-28T07:57:14.811Z,96232.22
2022-09-28T07:59:53.102Z,96235.91
2022-09-28T08:02:39.430Z,96238.13
2022-09-28T08:05:08.899Z,96253.94
2022-09-28T08:07:37.862Z,96256.34
2022-09-28T08:10:10.249Z,96251.33
2022-09-28T08:13:00.696Z,96241.80
2022-09-28T08:15:41.924Z,96241.94
2022-09-28T08:18:10.956Z,96253.31
2022-09-28T08:20:56.489Z,96263.36
2022-09-28T08:23:24.031Z,96270.89
2022-09-28T08:25:56.569Z,96267.62
2022-09-28T08:28:24.334Z,96270.69
2022-09-28T08:30:53.808Z,96275.75
2022-09-28T08:33:43.994Z,96269.53
2022-09-28T08:36:29.845Z,96275.20
2022-09-28T08:38:58.880Z,96271.75
2022-09-28T08:41:54.175Z,96279.67
2022-09-28T08:44:45.540Z,96277.00
2022-09-28T08:47:37.014Z,96287.31
2022-09-28T08:50:17.577Z,96291.16
2022-09-28T08:53:06.205Z,96289.05
2022-09-28T08:55:39.576Z,96287.09
2022-09-28T08:58:23.716Z,96287.34
2022-09-28T09:00:52.405Z,96290.06
2022-09-28T09:03:32.058Z,96288.72
2022-09-28T09:06:18.163Z,96291.24
2022-09-28T09:09:00.538Z,96286.39
2022-09-28T09:11:48.202Z,96280.34
2022-09-28T09:14:43.823Z,96278.77
2022-09-28T09:17:24.433Z,96285.14
2022-09-28T09:20:20.166Z,96275.59
2022-09-28T09:23:00.418Z,96277.80
2022-09-28T09:25:42.347Z,96276.75
2022-09-28T09:28:20.350Z,96275.23
2022-09-28T09:31:10.986Z,96272.58
2022-09-28T09:33:43.730Z,96264.52
2022-09-28T09:36:22.079Z,96267.45
2022-09-28T09:39:06.691Z,96271.59
2022-09-28T09:42:05.497Z,96270.00
2022-09-28T09:44:58.756Z,96269.98
2022-09-28T09:47:49.500Z,96276.53
2022-09-28T09:50:33.753Z,96271.91
2022-09-28T09:53:04.498Z,96278.67
2022-09-28T09:55:44.778Z,96275.47
2022-09-28T09:58:29.318Z,96279.64
2022-09-28T10:01:10.640Z,96285.14
2022-09-28T10:03:58.168Z,96290.84
2022-09-28T10:06:29.714Z,96293.27
2022-09-28T10:09:06.418Z,96289.80
2022-09-28T10:11:40.931Z,96289.11
2022-09-28T10:14:16.827Z,96285.97
2022-09-28T10:16:47.949Z,96290.97
2022-09-28T10:19:20.909Z,96291.52
2022-09-28T10:21:53.107Z,96289.66
2022-09-28T10:24:32.122Z,96285.73
2022-09-28T10:27:12.190Z,96290.86
2022-09-28T10:30:09.272Z,96285.03
2022-09-28T10:32:38.955Z,96287.22
2022-09-28T10:35:22.388Z,96307.47
2022-09-28T10:38:16.903Z,96305.78
2022-09-28T10:40:53.334Z,96294.66
2022-09-28T10:43:39.545Z,96295.16
2022-09-28T10:46:22.929Z,96287.91
2022-09-28T10:49:03.055Z,96284.98
2022-09-28T10:51:51.587Z,96284.41
2022-09-28T10:54:22.732Z,96277.22
2022-09-28T10:56:53.111Z,96275.20
2022-09-28T10:59:37.542Z,96270.69
2022-09-28T11:02:27.058Z,96278.48
2022-09-28T11:05:01.077Z,96275.44
2022-09-28T11:07:32.442Z,96276.05
2022-09-28T11:10:01.167Z,96276.70
2022-09-28T11:12:35.866Z,96282.98
2022-09-28T11:15:05.970Z,96282.60
2022-09-28T11:17:40.083Z,96286.08
2022-09-28T11:20:28.453Z,96285.44
2022-09-28T11:23:18.474Z,96283.05
2022-09-28T11:26:01.689Z,96278.76
2022-09-28T11:28:32.705Z,96273.13
2022-09-28T11:31:01.761Z,96265.11
2022-09-28T11:33:40.653Z,96263.05
2022-09-28T11:36:16.542Z,96264.52
2022-09-28T11:38:54.946Z,96272.88
2022-09-28T11:41:27.903Z,96265.95
2022-09-28T11:44:16.075Z,96273.14
2022-09-28T11:47:05.749Z,96275.92
2022-09-28T11:49:39.891Z,96273.25
2022-09-28T11:52:23.087Z,96273.84
2022-09-28T11:54:57.068Z,96265.83
2022-09-28T11:57:30.192Z,96256.88
2022-09-28T12:00:13.263Z,96254.73
2022-09-28T12:02:55.263Z,96261.34
2022-09-28T12:05:33.578Z,96261.34
2022-09-28T12:08:15.054Z,96261.78
2022-09-28T12:11:13.568Z,96269.33
2022-09-28T12:14:04.434Z,96273.31
2022-09-28T12:17:07.385Z,96271.77
2022-09-28T12:19:43.379Z,96270.74
2022-09-28T12:22:17.175Z,96271.02
2022-09-28T12:24:47.047Z,96267.80
2022-09-28T12:27:17.631Z,96269.39
2022-09-28T12:30:00.228Z,96265.24
2022-09-28T12:32:37.373Z,96261.33
2022-09-28T12:35:31.797Z,96253.72
2022-09-28T12:38:13.377Z,96259.70
2022-09-28T12:40:53.400Z,96267.16
2022-09-28T12:43:40.068Z,96261.30
2022-09-28T12:46:16.932Z,96261.88
2022-09-28T12:49:21.661Z,96268.94
2022-09-28T12:51:34.136Z,96268.92
2022-09-28T12:54:07.844Z,96272.11
2022-09-28T12:57:10.845Z,96276.42
2022-09-28T12:59:41.980Z,96282.75
2022-09-28T13:02:19.517Z,96286.50
2022-09-28T13:05:09.106Z,96286.86
2022-09-28T13:07:57.865Z,96287.35
2022-09-28T13:10:37.951Z,96289.82
2022-09-28T13:13:09.029Z,96288.17
2022-09-28T13:15:55.398Z,96291.53
2022-09-28T13:18:35.260Z,96294.72
2022-09-28T13:21:10.141Z,96289.48
2022-09-28T13:23:42.397Z,96293.48
2022-09-28T13:26:16.719Z,96295.28
2022-09-28T13:28:46.977Z,96294.59
2022-09-28T13:31:17.647Z,96298.02
2022-09-28T13:33:47.568Z,96302.38
2022-09-28T13:36:33.029Z,96304.82
2022-09-28T13:39:00.495Z,96303.94
2022-09-28T13:41:34.917Z,96298.94
2022-09-28T13:44:17.400Z,96294.14
2022-09-28T13:46:52.077Z,96294.80
2022-09-28T13:49:39.786Z,96294.85
2022-09-28T13:52:22.375Z,96296.86
2022-09-28T13:55:24.399Z,96288.13
2022-09-28T13:57:58.107Z,96287.56
2022-09-28T14:00:33.771Z,96294.38
2022-09-28T14:03:07.873Z,96295.75
2022-09-28T14:05:47.697Z,96298.47
2022-09-28T14:08:38.068Z,96301.01
2022-09-28T14:11:34.342Z,96310.32
2022-09-28T14:14:13.114Z,96314.05
2022-09-28T14:16:41.921Z,96316.97
2022-09-28T14:19:22.418Z,96312.91
2022-09-28T14:21:57.581Z,96320.11
2022-09-28T14:24:37.786Z,96322.64
2022-09-28T14:27:20.883Z,96315.48
2022-09-28T14:29:51.844Z,96318.63
2022-09-28T14:32:24.236Z,96311.69
2022-09-28T14:34:58.292Z,96314.03
2022-09-28T14:37:47.159Z,96315.23
2022-09-28T14:40:49.613Z,96322.81
2022-09-28T14:43:30.589Z,96317.98
2022-09-28T14:46:14.282Z,96319.35
2022-09-28T14:48:52.952Z,96316.65
2022-09-28T14:51:30.471Z,96312.59
2022-09-28T14:54:03.734Z,96316.09
2022-09-28T14:56:35.636Z,96313.38
2022-09-28T14:59:03.088Z,96317.30
2022-09-28T15:01:30.388Z,96312.47
2022-09-28T15:04:06.244Z,96313.27
2022-09-28T15:06:48.565Z,96315.41
2022-09-28T15:09:29.581Z,96323.17
2022-09-28T15:12:10.140Z,96313.86
2022-09-28T15:14:53.698Z,96311.92
2022-09-28T15:17:27.605Z,96323.20
2022-09-28T15:20:19.195Z,96325.73
2022-09-28T15:22:50.926Z,96318.73
2022-09-28T15:25:20.959Z,96321.45
2022-09-28T15:28:06.380Z,96320.09
2022-09-28T15:30:42.022Z,96327.47
2022-09-28T15:33:44.223Z,96326.52
2022-09-28T15:36:27.851Z,96333.89
2022-09-28T15:38:58.663Z,96333.48
2022-09-28T15:41:26.599Z,96337.95
2022-09-28T15:44:09.832Z,96330.95
2022-09-28T15:46:39.912Z,96322.23
2022-09-28T15:49:23.286Z,96314.08
2022-09-28T15:51:53.226Z,96314.29
2022-09-28T15:54:26.991Z,96305.75
2022-09-28T15:57:01.400Z,96308.80
2022-09-28T15:59:40.445Z,96312.08
2022-09-28T16:02:17.012Z,96316.73
2022-09-28T16:05:00.150Z,96318.66
2022-09-28T16:07:40.200Z,96325.25
2022-09-28T16:10:14.059Z,96321.54
2022-09-28T16:12:48.166Z,96323.07
2022-09-28T16:15:24.669Z,96330.62
2022-09-28T16:17:55.558Z,96338.92
2022-09-28T16:20:31.408Z,96341.81
2022-09-28T16:23:05.404Z,96336.55
2022-09-28T16:25:36.988Z,96338.28
2022-09-28T16:28:05.174Z,96346.98
2022-09-28T16:30:34.324Z,96340.55
2022-09-28T16:33:07.955Z,96345.77
2022-09-28T16:35:41.878Z,96348.27
2022-09-28T16:38:13.149Z,96356.16
2022-09-28T16:40:48.947Z,96352.64
2022-09-28T16:43:23.625Z,96353.38
2022-09-28T16:45:51.417Z,96351.98
2022-09-28T16:48:20.983Z,96350.22
2022-09-28T16:50:48.503Z,96352.08
2022-09-28T16:53:35.466Z,96352.42
2022-09-28T16:56:03.746Z,96351.02
2022-09-28T16:58:31.385Z,96361.98
2022-09-28T17:00:59.427Z,96365.24
2022-09-28T17:03:27.631Z,96367.50
2022-09-28T17:05:56.029Z,96376.95
2022-09-28T17:08:24.474Z,96379.23
2022-09-28T17:11:18.094Z,96376.09
2022-09-28T17:13:33.429Z,96380.50
2022-09-28T17:16:12.995Z,96379.47
2022-09-28T17:18:40.831Z,96375.00
2022-09-28T17:21:19.593Z,96379.92
2022-09-28T17:23:48.760Z,96376.80
2022-09-28T17:26:30.160Z,96375.56
2022-09-28T17:28:58.831Z,96374.34
2022-09-28T17:31:26.331Z,96375.66
2022-09-28T17:33:54.353Z,96372.30
2022-09-28T17:36:22.301Z,96374.92
2022-09-28T17:38:51.501Z,96385.50
2022-09-28T17:41:20.967Z,96387.34
2022-09-28T17:43:49.752Z,96390.52
2022-09-28T17:46:29.546Z,96390.97
2022-09-28T17:48:58.986Z,96395.94
2022-09-28T17:51:29.694Z,96393.16
2022-09-28T17:53:58.329Z,96394.80
2022-09-28T17:56:29.812Z,96390.86
2022-09-28T17:59:00.223Z,96395.44
2022-09-28T18:01:29.150Z,96403.29
2022-09-28T18:03:57.086Z,96398.77
2022-09-28T18:06:24.735Z,96397.70
2022-09-28T18:08:54.526Z,96395.24
2022-09-28T18:11:22.228Z,96398.98
2022-09-28T18:13:49.717Z,96395.98
2022-09-28T18:16:17.089Z,96396.84
2022-09-28T18:18:47.475Z,96404.26
2022-09-28T18:21:16.986Z,96403.23
2022-09-28T18:23:48.333Z,96404.66
2022-09-28T18:26:18.362Z,96405.33
2022-09-28T18:28:46.321Z,96407.56
2022-09-28T18:31:14.818Z,96408.41
2022-09-28T18:33:43.132Z,96405.80
2022-09-28T18:36:10.395Z,96404.33
2022-09-28T18:38:38.485Z,96403.06
2022-09-28T18:41:10.432Z,96409.64
2022-09-28T18:43:41.625Z,96403.21
2022-09-28T18:46:10.240Z,96417.97
2022-09-28T18:48:40.283Z,96412.52
2022-09-28T18:51:09.016Z,96409.31
2022-09-28T18:53:38.527Z,96407.84
2022-09-28T18:56:07.886Z,96409.96
2022-09-28T18:58:36.530Z,96409.89
2022-09-28T19:01:31.765Z,96406.16
2022-09-28T19:03:44.947Z,96413.80
2022-09-28T19:06:14.559Z,96414.30
2022-09-28T19:08:42.808Z,96417.13
2022-09-28T19:11:12.723Z,96420.55
2022-09-28T19:13:40.426Z,96429.34
2022-09-28T19:16:23.463Z,96432.30
2022-09-28T19:18:56.073Z,96427.41
2022-09-28T19:21:23.640Z,96435.78
2022-09-28T19:23:52.991Z,96436.82
2022-09-28T19:26:23.721Z,96438.09
2022-09-28T19:28:51.426Z,96427.09
2022-09-28T19:31:19.373Z,96434.84
2022-09-28T19:33:47.656Z,96427.23
2022-09-28T19:36:18.105Z,96429.06
2022-09-28T19:38:46.114Z,96430.70
2022-09-28T19:41:39.384Z,96432.30
2022-09-28T19:44:09.869Z,96429.77
2022-09-28T19:46:38.782Z,96439.11
2022-09-28T19:49:12.454Z,96438.25
2022-09-28T19:52:01.740Z,96433.33
2022-09-28T19:54:13.393Z,96439.97
2022-09-28T19:56:42.527Z,96441.47
2022-09-28T19:59:11.173Z,96440.05
2022-09-28T20:01:39.145Z,96436.14
2022-09-28T20:04:06.451Z,96447.80
2022-09-28T20:06:36.359Z,96448.48
2022-09-28T20:09:04.134Z,96450.64
2022-09-28T20:11:31.876Z,96446.16
2022-09-28T20:13:59.708Z,96442.91
2022-09-28T20:16:29.081Z,96437.65
2022-09-28T20:18:59.928Z,96431.64
2022-09-28T20:21:27.292Z,96436.02
2022-09-28T20:23:55.725Z,96434.79
2022-09-28T20:26:24.304Z,96436.28
2022-09-28T20:28:53.326Z,96437.55
2022-09-28T20:31:23.135Z,96445.73
2022-09-28T20:33:51.221Z,96441.83
2022-09-28T20:36:21.476Z,96448.91
2022-09-28T20:38:50.530Z,96454.05
2022-09-28T20:41:19.551Z,96452.05
2022-09-28T20:43:46.694Z,96452.85
2022-09-28T20:46:14.634Z,96453.93
2022-09-28T20:48:41.888Z,96454.64
2022-09-28T20:51:15.113Z,96450.73
2022-09-28T20:53:45.321Z,96448.38
2022-09-28T20:56:15.635Z,96457.58
2022-09-28T20:58:43.014Z,96455.78
2022-09-28T21:01:16.808Z,96451.33
2022-09-28T21:03:50.380Z,96452.23
2022-09-28T21:06:21.353Z,96456.83
2022-09-28T21:08:49.170Z,96458.95
2022-09-28T21:11:18.415Z,96458.53
2022-09-28T21:13:45.685Z,96457.87
2022-09-28T21:16:15.768Z,96454.73
2022-09-28T21:18:43.246Z,96456.23
2022-09-28T21:21:15.246Z,96454.80
2022-09-28T21:23:44.236Z,96457.23
2022-09-28T21:26:15.302Z,96454.13
2022-09-28T21:28:44.290Z,96453.12
2022-09-28T21:31:12.088Z,96453.23
2022-09-28T21:33:39.480Z,96464.13
2022-09-28T21:36:10.226Z,96458.09
2022-09-28T21:38:37.651Z,96464.16
2022-09-28T21:41:05.121Z,96468.30
2022-09-28T21:43:34.242Z,96460.38
2022-09-28T21:46:01.726Z,96458.59
2022-09-28T21:48:29.459Z,96460.61
2022-09-28T21:50:58.625Z,96465.56
2022-09-28T21:53:28.634Z,96466.10
2022-09-28T21:55:58.236Z,96465.68
2022-09-28T21:58:28.265Z,96464.91
2022-09-28T22:01:14.126Z,96467.34
2022-09-28T22:03:43.380Z,96470.39
2022-09-28T22:06:11.335Z,96466.92
2022-09-28T22:08:38.955Z,96465.02
2022-09-28T22:11:11.292Z,96459.19
2022-09-28T22:13:43.682Z,96468.38
2022-09-28T22:16:12.049Z,96471.84
2022-09-28T22:18:41.123Z,96470.62
2022-09-28T22:21:20.095Z,96471.53
2022-09-28T22:23:48.002Z,96478.04
2022-09-28T22:26:24.268Z,96480.27
2022-09-28T22:28:54.051Z,96480.38
2022-09-28T22:31:28.183Z,96479.96
2022-09-28T22:33:56.664Z,96474.34
2022-09-28T22:36:25.432Z,96469.12
2022-09-28T22:38:54.756Z,96469.12
2022-09-28T22:41:22.675Z,96470.89
2022-09-28T22:43:51.367Z,96471.66
2022-09-28T22:46:24.776Z,96469.78
2022-09-28T22:48:54.811Z,96460.50
2022-09-28T22:51:23.647Z,96470.89
2022-09-28T22:53:51.311Z,96469.89
2022-09-28T22:56:19.348Z,96468.66
2022-09-28T22:58:47.242Z,96464.22
2022-09-28T23:01:17.291Z,96463.19
2022-09-28T23:03:45.157Z,96469.12
2022-09-28T23:06:15.393Z,96464.65
2022-09-28T23:08:43.934Z,96465.56
2022-09-28T23:11:11.598Z,96468.58
2022-09-28T23:13:39.265Z,96469.49
2022-09-28T23:16:10.199Z,96461.09
2022-09-28T23:18:40.450Z,96463.67
2022-09-28T23:21:14.678Z,96461.34
2022-09-28T23:23:44.107Z,96460.11
2022-09-28T23:26:14.307Z,96459.13
2022-09-28T23:28:42.270Z,96451.75
2022-09-28T23:31:15.164Z,96458.45
2022-09-28T23:33:42.273Z,96456.34
2022-09-28T23:36:09.476Z,96460.92
2022-09-28T23:38:36.684Z,96465.84
2022-09-28T23:41:04.409Z,96457.89
2022-09-28T23:43:31.898Z,96455.11
2022-09-28T23:45:59.041Z,96450.09
2022-09-28T23:48:26.213Z,96449.31
2022-09-28T23:50:53.431Z,96450.66
2022-09-28T23:53:20.540Z,96445.86
2022-09-28T23:55:47.786Z,96439.68
2022-09-28T23:58:14.784Z,96442.16
